createdAt,value
2023-05-03T00:00:29.879Z,3.80
2023-05-03T00:03:16.554Z,3.50
2023-05-03T00:06:15.904Z,3.58
2023-05-03T00:09:02.555Z,4.40
2023-05-03T00:11:48.349Z,3.75
2023-05-03T00:14:34.262Z,3.25
2023-05-03T00:17:20.019Z,3.10
2023-05-03T00:20:08.163Z,3.03
2023-05-03T00:22:54.149Z,3.50
2023-05-03T00:25:39.916Z,3.53
2023-05-03T00:28:26.229Z,2.95
2023-05-03T00:31:12.088Z,3.10
2023-05-03T00:33:57.686Z,4.00
2023-05-03T00:36:43.513Z,3.80
2023-05-03T00:39:33.351Z,3.55
2023-05-03T00:42:19.664Z,3.42
2023-05-03T00:45:06.831Z,3.97
2023-05-03T00:47:53.000Z,4.00
2023-05-03T00:50:39.151Z,3.80
2023-05-03T00:53:25.379Z,4.25
2023-05-03T00:56:12.167Z,4.15
2023-05-03T00:58:58.439Z,4.47
2023-05-03T01:01:46.023Z,5.40
2023-05-03T01:04:32.402Z,5.10
2023-05-03T01:07:43.431Z,3.85
2023-05-03T01:10:41.917Z,4.15
2023-05-03T01:13:37.826Z,5.15
2023-05-03T01:16:50.092Z,4.70
2023-05-03T01:19:59.146Z,4.88
2023-05-03T01:22:51.094Z,4.18
2023-05-03T01:25:37.014Z,4.55
2023-05-03T01:28:23.043Z,4.43
2023-05-03T01:31:09.200Z,4.70
2023-05-03T01:34:04.849Z,4.30
2023-05-03T01:36:51.111Z,4.53
2023-05-03T01:39:46.915Z,3.92
2023-05-03T01:42:36.865Z,4.20
2023-05-03T01:45:23.310Z,4.20
2023-05-03T01:48:16.949Z,3.92
2023-05-03T01:51:02.721Z,3.45
2023-05-03T01:53:48.404Z,3.13
2023-05-03T01:56:36.341Z,3.03
2023-05-03T01:59:22.424Z,2.90
2023-05-03T02:02:08.492Z,3.08
2023-05-03T02:04:54.467Z,2.97
2023-05-03T02:07:41.073Z,2.45
2023-05-03T02:10:27.290Z,2.80
2023-05-03T02:13:18.912Z,3.70
2023-05-03T02:16:06.846Z,3.20
2023-05-03T02:18:53.880Z,3.58
2023-05-03T02:21:39.708Z,3.70
2023-05-03T02:24:26.116Z,3.53
2023-05-03T02:27:12.211Z,3.22
2023-05-03T02:29:58.365Z,3.38
2023-05-03T02:32:45.406Z,3.15
2023-05-03T02:35:31.179Z,3.10
2023-05-03T02:38:17.229Z,3.65
2023-05-03T02:41:03.297Z,3.08
2023-05-03T02:43:49.915Z,3.58
2023-05-03T02:46:36.077Z,3.17
2023-05-03T02:49:22.126Z,3.45
2023-05-03T02:52:08.398Z,3.63
2023-05-03T02:54:54.809Z,3.70
2023-05-03T02:57:42.392Z,3.10
2023-05-03T03:00:29.886Z,3.17
2023-05-03T03:03:16.072Z,3.30
2023-05-03T03:06:02.304Z,2.80
2023-05-03T03:08:48.307Z,3.30
2023-05-03T03:11:34.103Z,4.10
2023-05-03T03:14:19.987Z,3.05
2023-05-03T03:17:09.176Z,2.75
2023-05-03T03:19:55.326Z,3.30
2023-05-03T03:22:41.484Z,10.23
2023-05-03T03:25:27.525Z,8.90
2023-05-03T03:28:15.749Z,6.88
2023-05-03T03:31:01.556Z,4.68
2023-05-03T03:33:47.442Z,4.35
2023-05-03T03:36:38.103Z,3.50
2023-05-03T03:39:24.402Z,3.70
2023-05-03T03:42:11.099Z,3.85
2023-05-03T03:44:57.125Z,3.70
2023-05-03T03:47:43.359Z,3.72
2023-05-03T03:50:29.648Z,3.38
2023-05-03T03:53:15.837Z,3.53
2023-05-03T03:56:02.423Z,3.03
2023-05-03T03:58:49.599Z,2.95
2023-05-03T04:01:35.508Z,3.35
2023-05-03T04:04:22.466Z,3.47
2023-05-03T04:07:09.817Z,3.47
2023-05-03T04:09:56.697Z,3.50
2023-05-03T04:12:43.623Z,3.47
2023-05-03T04:15:31.587Z,3.53
2023-05-03T04:18:19.389Z,3.95
2023-05-03T04:21:05.893Z,3.53
2023-05-03T04:23:52.239Z,3.60
2023-05-03T04:26:40.558Z,3.80
2023-05-03T04:29:33.449Z,3.40
2023-05-03T04:32:23.624Z,3.78
2023-05-03T04:35:13.558Z,3.67
2023-05-03T04:38:04.440Z,4.05
2023-05-03T04:40:51.698Z,3.70
2023-05-03T04:43:37.440Z,3.90
2023-05-03T04:46:23.602Z,4.10
2023-05-03T04:49:11.131Z,4.00
2023-05-03T04:51:57.665Z,3.80
2023-05-03T04:54:45.802Z,4.20
2023-05-03T04:57:34.785Z,3.70
2023-05-03T05:00:23.133Z,4.22
2023-05-03T05:03:16.503Z,4.13
2023-05-03T05:06:03.492Z,4.30
2023-05-03T05:08:50.968Z,4.85
2023-05-03T05:11:36.914Z,4.30
2023-05-03T05:14:22.855Z,4.07
2023-05-03T05:17:09.232Z,9.07
2023-05-03T05:19:55.349Z,6.18
2023-05-03T05:22:42.033Z,6.00
2023-05-03T05:25:28.002Z,4.57
2023-05-03T05:28:15.504Z,5.07
2023-05-03T05:31:02.738Z,5.75
2023-05-03T05:33:50.718Z,4.90
2023-05-03T05:36:37.468Z,3.80
2023-05-03T05:39:24.086Z,4.82
2023-05-03T05:42:10.075Z,4.57
2023-05-03T05:44:57.377Z,5.47
2023-05-03T05:47:44.338Z,5.20
2023-05-03T05:50:31.611Z,5.78
2023-05-03T05:53:22.402Z,5.68
2023-05-03T05:56:14.920Z,6.32
2023-05-03T05:59:01.248Z,5.28
2023-05-03T06:01:47.599Z,5.07
2023-05-03T06:04:36.350Z,5.72
2023-05-03T06:07:22.243Z,5.53
2023-05-03T06:10:08.352Z,6.97
2023-05-03T06:12:55.654Z,8.20
2023-05-03T06:15:43.958Z,10.23
2023-05-03T06:18:29.990Z,8.95
2023-05-03T06:21:16.183Z,6.80
2023-05-03T06:24:02.186Z,5.43
2023-05-03T06:26:48.635Z,6.88
2023-05-03T06:29:35.528Z,6.93
2023-05-03T06:32:22.141Z,5.90
2023-05-03T06:35:09.522Z,5.65
2023-05-03T06:37:57.323Z,5.15
2023-05-03T06:41:02.540Z,5.13
2023-05-03T06:43:48.557Z,5.70
2023-05-03T06:46:34.542Z,5.78
2023-05-03T06:49:20.396Z,5.28
2023-05-03T06:52:09.482Z,6.97
2023-05-03T06:54:57.809Z,7.07
2023-05-03T06:57:44.049Z,4.72
2023-05-03T07:00:30.548Z,4.88
2023-05-03T07:03:16.650Z,4.88
2023-05-03T07:06:02.676Z,5.00
2023-05-03T07:08:48.369Z,4.18
2023-05-03T07:11:37.217Z,3.97
2023-05-03T07:14:23.419Z,4.15
2023-05-03T07:17:09.865Z,3.92
2023-05-03T07:19:56.805Z,5.70
2023-05-03T07:22:42.908Z,4.85
2023-05-03T07:25:28.732Z,7.25
2023-05-03T07:28:14.828Z,11.50
2023-05-03T07:31:00.835Z,12.18
2023-05-03T07:33:47.055Z,16.67
2023-05-03T07:36:33.221Z,10.07
2023-05-03T07:39:19.358Z,6.00
2023-05-03T07:42:04.934Z,8.57
2023-05-03T07:44:51.095Z,6.38
2023-05-03T07:47:39.460Z,6.72
2023-05-03T07:50:25.556Z,4.32
2023-05-03T07:53:12.545Z,4.30
2023-05-03T07:55:58.508Z,4.63
2023-05-03T07:58:46.725Z,4.53
2023-05-03T08:01:35.873Z,9.70
2023-05-03T08:04:22.315Z,6.68
2023-05-03T08:07:08.717Z,9.35
2023-05-03T08:09:54.701Z,4.85
2023-05-03T08:12:41.018Z,4.95
2023-05-03T08:15:28.009Z,4.15
2023-05-03T08:18:13.936Z,5.22
2023-05-03T08:20:59.892Z,4.57
2023-05-03T08:23:46.519Z,3.65
2023-05-03T08:26:33.339Z,4.07
2023-05-03T08:29:18.950Z,3.25
2023-05-03T08:32:05.330Z,3.95
2023-05-03T08:34:52.305Z,3.80
2023-05-03T08:37:42.229Z,4.00
2023-05-03T08:40:29.328Z,3.83
2023-05-03T08:43:16.067Z,4.45
2023-05-03T08:46:01.928Z,4.55
2023-05-03T08:48:55.176Z,4.95
2023-05-03T08:51:47.289Z,3.83
2023-05-03T08:54:33.285Z,5.32
2023-05-03T08:57:19.768Z,5.40
2023-05-03T09:00:10.485Z,3.72
2023-05-03T09:02:56.698Z,4.60
2023-05-03T09:05:44.423Z,6.80
2023-05-03T09:08:31.169Z,5.10
2023-05-03T09:11:31.243Z,4.30
2023-05-03T09:14:18.722Z,7.78
2023-05-03T09:17:18.170Z,5.30
2023-05-03T09:20:04.572Z,4.10
2023-05-03T09:22:52.561Z,4.18
2023-05-03T09:25:42.494Z,3.55
2023-05-03T09:28:28.371Z,3.42
2023-05-03T09:31:14.162Z,3.03
2023-05-03T09:34:00.304Z,3.05
2023-05-03T09:36:47.262Z,3.35
2023-05-03T09:39:33.697Z,3.75
2023-05-03T09:42:19.469Z,3.20
2023-05-03T09:45:08.018Z,2.58
2023-05-03T09:47:55.893Z,3.35
2023-05-03T09:50:43.206Z,2.80
2023-05-03T09:53:29.936Z,2.85
2023-05-03T09:56:16.478Z,3.13
2023-05-03T09:59:03.787Z,2.92
2023-05-03T10:01:51.394Z,3.60
2023-05-03T10:05:00.298Z,2.67
2023-05-03T10:07:46.315Z,5.05
2023-05-03T10:10:32.918Z,3.08
2023-05-03T10:13:18.806Z,2.92
2023-05-03T10:16:17.934Z,2.85
2023-05-03T10:19:10.537Z,2.35
2023-05-03T10:22:12.567Z,2.50
2023-05-03T10:25:02.032Z,2.78
2023-05-03T10:27:48.677Z,2.92
2023-05-03T10:30:38.927Z,3.70
2023-05-03T10:33:35.553Z,3.30
2023-05-03T10:36:22.850Z,2.60
2023-05-03T10:39:14.720Z,3.33
2023-05-03T10:42:03.517Z,3.00
2023-05-03T10:44:49.538Z,2.72
2023-05-03T10:47:35.883Z,3.13
2023-05-03T10:50:25.797Z,3.45
2023-05-03T10:53:33.875Z,2.80
2023-05-03T10:56:19.724Z,2.55
2023-05-03T10:59:05.486Z,2.80
2023-05-03T11:01:53.172Z,3.00
2023-05-03T11:04:45.424Z,2.40
2023-05-03T11:07:31.901Z,2.40
2023-05-03T11:10:18.733Z,3.00
2023-05-03T11:13:04.665Z,3.13
2023-05-03T11:15:50.729Z,2.88
2023-05-03T11:18:36.850Z,2.70
2023-05-03T11:21:23.474Z,3.20
2023-05-03T11:24:09.994Z,2.65
2023-05-03T11:26:56.080Z,2.78
2023-05-03T11:29:42.307Z,2.58
2023-05-03T11:32:29.901Z,3.55
2023-05-03T11:35:17.918Z,3.00
2023-05-03T11:38:04.355Z,3.33
2023-05-03T11:40:50.406Z,3.67
2023-05-03T11:43:52.871Z,3.90
2023-05-03T11:46:45.218Z,8.10
2023-05-03T11:49:31.243Z,3.17
2023-05-03T11:52:22.083Z,5.80
2023-05-03T11:55:09.539Z,3.83
2023-05-03T11:57:57.066Z,6.38
2023-05-03T12:00:47.028Z,5.72
2023-05-03T12:03:33.892Z,4.03
2023-05-03T12:06:21.718Z,4.07
2023-05-03T12:09:15.689Z,3.80
2023-05-03T12:12:07.097Z,5.05
2023-05-03T12:15:00.093Z,7.43
2023-05-03T12:17:49.481Z,4.80
2023-05-03T12:23:27.042Z,5.38
2023-05-03T12:26:14.485Z,23.38
2023-05-03T12:29:02.223Z,5.53
2023-05-03T12:31:49.418Z,4.95
2023-05-03T12:34:36.754Z,5.82
2023-05-03T12:37:27.168Z,5.15
2023-05-03T12:40:32.279Z,7.32
2023-05-03T12:43:19.993Z,5.88
2023-05-03T12:46:32.121Z,5.38
2023-05-03T12:49:14.912Z,4.65
2023-05-03T12:52:32.445Z,8.82
2023-05-03T12:55:11.272Z,6.03
2023-05-03T12:58:36.893Z,4.80
2023-05-03T13:01:47.868Z,4.75
2023-05-03T13:07:01.566Z,5.00
2023-05-03T13:12:37.853Z,3.90
2023-05-03T13:15:27.439Z,4.15
2023-05-03T13:18:14.458Z,3.20
2023-05-03T13:21:01.523Z,3.90
2023-05-03T13:23:48.231Z,5.38
2023-05-03T13:26:35.624Z,4.60
2023-05-03T13:29:22.413Z,4.10
2023-05-03T13:32:09.603Z,3.58
2023-05-03T13:34:55.722Z,3.55
2023-05-03T13:37:41.589Z,3.00
2023-05-03T13:40:27.989Z,4.10
2023-05-03T13:43:14.135Z,2.67
2023-05-03T13:46:03.058Z,2.60
2023-05-03T13:48:50.389Z,2.72
2023-05-03T13:51:37.167Z,3.00
2023-05-03T13:54:22.982Z,4.10
2023-05-03T13:57:09.255Z,2.85
2023-05-03T13:59:57.481Z,2.63
2023-05-03T14:02:43.340Z,2.28
2023-05-03T14:05:29.514Z,2.33
2023-05-03T14:08:16.736Z,2.20
2023-05-03T14:11:04.141Z,2.92
2023-05-03T14:13:56.978Z,2.55
2023-05-03T14:16:44.038Z,3.88
2023-05-03T14:19:30.073Z,2.90
2023-05-03T14:22:16.097Z,3.60
2023-05-03T14:25:02.638Z,3.65
2023-05-03T14:27:48.770Z,3.53
2023-05-03T14:30:34.708Z,4.97
2023-05-03T14:33:20.964Z,5.53
2023-05-03T14:36:09.390Z,7.60
2023-05-03T14:38:55.126Z,5.05
2023-05-03T14:41:43.094Z,4.57
2023-05-03T14:44:28.963Z,3.42
2023-05-03T14:47:15.204Z,6.13
2023-05-03T14:52:47.416Z,3.25
2023-05-03T14:55:33.787Z,2.80
2023-05-03T14:58:19.707Z,3.30
2023-05-03T15:01:05.629Z,3.35
2023-05-03T15:03:59.884Z,2.30
2023-05-03T15:06:46.152Z,10.85
2023-05-03T15:09:35.198Z,11.95
2023-05-03T15:12:20.998Z,4.38
2023-05-03T15:15:10.314Z,3.67
2023-05-03T15:17:56.895Z,3.92
2023-05-03T15:20:42.582Z,3.22
2023-05-03T15:23:28.304Z,3.42
2023-05-03T15:26:14.321Z,2.60
2023-05-03T15:29:00.530Z,2.70
2023-05-03T15:31:46.571Z,2.00
2023-05-03T15:34:33.104Z,2.38
2023-05-03T15:37:18.905Z,3.05
2023-05-03T15:40:06.054Z,3.30
2023-05-03T15:42:52.522Z,3.47
2023-05-03T15:45:38.470Z,2.53
2023-05-03T15:48:24.544Z,2.97
2023-05-03T15:51:10.791Z,3.20
2023-05-03T15:53:56.559Z,3.47
2023-05-03T15:56:42.764Z,6.82
2023-05-03T15:59:28.708Z,23.95
2023-05-03T16:02:14.522Z,48.17
2023-05-03T16:05:00.416Z,74.65
2023-05-03T16:08:55.185Z,8.00
2023-05-03T16:11:40.885Z,6.20
2023-05-03T16:14:26.715Z,5.85
2023-05-03T16:26:29.724Z,3.90
2023-05-03T16:29:18.670Z,4.93
2023-05-03T16:32:06.346Z,5.45
2023-05-03T16:34:53.507Z,4.50
2023-05-03T16:37:40.890Z,3.15
2023-05-03T16:40:27.207Z,3.20
2023-05-03T16:43:15.625Z,4.30
2023-05-03T16:46:02.355Z,1.92
2023-05-03T16:48:48.264Z,2.58
2023-05-03T16:51:34.361Z,2.15
2023-05-03T16:54:20.366Z,2.10
2023-05-03T16:57:06.153Z,2.25
2023-05-03T16:59:52.608Z,1.40
2023-05-03T17:02:39.855Z,2.30
2023-05-03T17:05:32.788Z,1.40
2023-05-03T17:08:18.952Z,2.30
2023-05-03T17:11:09.860Z,3.28
2023-05-03T17:13:55.654Z,1.67
2023-05-03T17:16:41.567Z,2.10
2023-05-03T17:19:28.160Z,1.92
2023-05-03T17:22:14.439Z,1.70
2023-05-03T17:25:00.640Z,1.75
2023-05-03T17:27:46.917Z,2.97
2023-05-03T17:30:33.246Z,1.90
2023-05-03T17:33:19.259Z,2.50
2023-05-03T17:36:07.980Z,2.25
2023-05-03T17:38:53.809Z,2.85
2023-05-03T17:41:39.989Z,1.58
2023-05-03T17:44:27.191Z,1.90
2023-05-03T17:47:13.139Z,1.77
2023-05-03T17:49:59.017Z,1.55
2023-05-03T17:52:45.354Z,2.38
2023-05-03T17:55:34.996Z,2.10
2023-05-03T17:58:21.093Z,2.03
2023-05-03T18:01:09.204Z,2.45
2023-05-03T18:03:55.147Z,1.38
2023-05-03T18:06:41.395Z,1.90
2023-05-03T18:09:27.186Z,2.60
2023-05-03T18:12:14.301Z,2.90
2023-05-03T18:15:00.370Z,2.20
2023-05-03T18:17:46.697Z,2.67
2023-05-03T18:20:32.524Z,2.30
2023-05-03T18:23:19.497Z,1.70
2023-05-03T18:26:10.089Z,2.20
2023-05-03T18:28:57.019Z,2.75
2023-05-03T18:31:42.922Z,3.00
2023-05-03T18:34:29.700Z,2.63
2023-05-03T18:37:15.882Z,3.92
2023-05-03T18:40:02.154Z,4.63
2023-05-03T18:42:48.224Z,3.55
2023-05-03T18:45:37.743Z,4.65
2023-05-03T18:48:23.655Z,1.70
2023-05-03T18:51:09.802Z,2.55
2023-05-03T18:53:56.026Z,2.95
2023-05-03T18:56:42.023Z,2.55
2023-05-03T18:59:28.134Z,2.38
2023-05-03T19:02:14.599Z,2.80
2023-05-03T19:05:00.784Z,2.88
2023-05-03T19:07:48.070Z,2.78
2023-05-03T19:10:33.751Z,2.67
2023-05-03T19:13:19.648Z,3.20
2023-05-03T19:16:06.028Z,2.80
2023-05-03T19:18:57.057Z,3.20
2023-05-03T19:21:43.865Z,14.43
2023-05-03T19:24:29.754Z,37.53
2023-05-03T19:27:18.836Z,68.75
2023-05-03T19:30:05.200Z,11.32
2023-05-03T19:32:51.385Z,5.47
2023-05-03T19:35:41.129Z,4.47
2023-05-03T19:38:27.635Z,3.42
2023-05-03T19:41:13.785Z,3.60
2023-05-03T19:43:59.844Z,3.97
2023-05-03T19:46:46.057Z,14.30
2023-05-03T19:49:33.327Z,16.23
2023-05-03T19:52:19.682Z,49.85
2023-05-03T19:55:07.739Z,73.55
2023-05-03T19:57:54.387Z,8.95
2023-05-03T20:00:40.930Z,79.10
2023-05-03T20:03:28.128Z,70.22
2023-05-03T20:06:14.521Z,29.88
2023-05-03T20:09:00.605Z,33.10
2023-05-03T20:11:46.781Z,10.80
2023-05-03T20:14:32.650Z,5.65
2023-05-03T20:17:18.752Z,5.53
2023-05-03T20:20:10.323Z,3.75
2023-05-03T20:22:57.521Z,3.20
2023-05-03T20:25:43.678Z,3.30
2023-05-03T20:28:31.951Z,3.22
2023-05-03T20:31:17.938Z,2.70
2023-05-03T20:34:05.203Z,2.42
2023-05-03T20:36:52.291Z,3.22
2023-05-03T20:39:38.130Z,2.50
2023-05-03T20:42:24.144Z,2.70
2023-05-03T20:45:12.395Z,2.05
2023-05-03T20:47:58.328Z,2.00
2023-05-03T20:50:44.478Z,1.70
2023-05-03T20:53:30.410Z,1.80
2023-05-03T20:56:16.820Z,1.80
2023-05-03T20:59:03.714Z,2.10
2023-05-03T21:01:52.655Z,1.77
2023-05-03T21:04:38.937Z,1.92
2023-05-03T21:07:24.793Z,2.00
2023-05-03T21:10:10.780Z,2.00
2023-05-03T21:12:56.517Z,1.73
2023-05-03T21:15:44.901Z,1.70
2023-05-03T21:18:31.202Z,1.77
2023-05-03T21:21:17.003Z,1.58
2023-05-03T21:24:03.020Z,1.73
2023-05-03T21:26:49.139Z,1.50
2023-05-03T21:29:35.436Z,1.50
2023-05-03T21:32:21.489Z,1.58
2023-05-03T21:35:09.302Z,1.98
2023-05-03T21:37:55.410Z,1.70
2023-05-03T21:40:41.138Z,1.98
2023-05-03T21:43:26.880Z,1.63
2023-05-03T21:46:12.828Z,1.70
2023-05-03T21:48:58.697Z,2.30
2023-05-03T21:51:45.204Z,1.80
2023-05-03T21:54:31.099Z,2.35
2023-05-03T21:57:18.901Z,2.25
2023-05-03T22:00:07.454Z,2.65
2023-05-03T22:02:54.386Z,2.33
2023-05-03T22:05:41.008Z,2.53
2023-05-03T22:08:26.816Z,2.30
2023-05-03T22:11:29.217Z,2.72
2023-05-03T22:14:15.472Z,2.38
2023-05-03T22:17:01.634Z,2.65
2023-05-03T22:19:47.446Z,2.42
2023-05-03T22:22:33.437Z,2.50
2023-05-03T22:25:28.139Z,2.60
2023-05-03T22:28:15.017Z,2.40
2023-05-03T22:31:01.089Z,3.65
2023-05-03T22:33:48.935Z,2.70
2023-05-03T22:36:35.007Z,2.60
2023-05-03T22:39:20.666Z,2.90
2023-05-03T22:42:06.447Z,3.47
2023-05-03T22:44:53.221Z,3.65
2023-05-03T22:47:39.371Z,2.88
2023-05-03T22:50:25.696Z,2.92
2023-05-03T22:53:11.856Z,2.90
2023-05-03T22:56:01.612Z,3.13
2023-05-03T22:58:55.205Z,3.28
2023-05-03T23:01:44.178Z,2.03
2023-05-03T23:04:30.540Z,2.60
2023-05-03T23:07:16.315Z,2.63
2023-05-03T23:10:03.856Z,2.47
2023-05-03T23:12:50.441Z,2.10
2023-05-03T23:15:37.716Z,2.55
2023-05-03T23:18:23.461Z,2.70
2023-05-03T23:21:10.173Z,2.90
2023-05-03T23:23:55.873Z,3.40
2023-05-03T23:26:41.695Z,2.40
2023-05-03T23:29:30.634Z,2.90
2023-05-03T23:32:20.690Z,3.15
2023-05-03T23:35:07.558Z,2.60
2023-05-03T23:37:53.819Z,3.10
2023-05-03T23:40:40.273Z,3.13
2023-05-03T23:43:26.254Z,3.10
2023-05-03T23:46:14.533Z,2.67
2023-05-03T23:49:00.567Z,2.60
2023-05-03T23:51:46.906Z,2.67
2023-05-03T23:54:33.367Z,2.67
2023-05-03T23:57:19.981Z,3.35
